Time;durP1;ratioP1;P1;durP2;ratioP2;P2;SDS_P1;SDS_P2;PMS_P1;PMS_P2;Temp;Humidity;BMP_temperature;BMP_pressure;BME280_temperature;BME280_humidity;BME280_pressure;Samples;Min_cycle;Max_cycle;Signal;HPM_P1;HPM_P2
2022/08/25 00:01:46;;;;;;;14.27;6.22;;;;;;;24.76;61.05;94825.94;5095094;28;20035;-65
2022/08/25 00:04:12;;;;;;;15.38;7.15;;;;;;;24.85;60.75;94826.25;5091255;28;20055;-67
2022/08/25 00:06:38;;;;;;;14.95;6.45;;;;;;;24.74;61.44;94831.16;5077445;28;20052;-67
2022/08/25 00:09:04;;;;;;;14.82;7.00;;;;;;;24.77;61.14;94832.84;5092792;28;20278;-67
2022/08/25 00:11:30;;;;;;;15.95;6.65;;;;;;;24.67;61.56;94823.63;5092313;28;20641;-63
2022/08/25 00:13:59;;;;;;;15.48;6.30;;;;;;;24.64;61.48;94819.94;5072563;28;20036;-66
2022/08/25 00:16:25;;;;;;;14.63;6.30;;;;;;;24.79;61.29;94830.38;5078024;28;20040;-65
2022/08/25 00:18:54;;;;;;;15.02;6.00;;;;;;;24.68;61.48;94825.06;5101246;27;20019;-66
2022/08/25 00:21:20;;;;;;;14.73;6.70;;;;;;;24.75;61.24;94824.47;5083382;28;20052;-65
2022/08/25 00:23:45;;;;;;;16.65;6.47;;;;;;;24.65;61.68;94820.66;5091279;28;20066;-64
2022/08/25 00:26:11;;;;;;;13.10;6.28;;;;;;;24.66;61.72;94822.13;5095420;28;20064;-67
2022/08/25 00:28:37;;;;;;;15.23;6.75;;;;;;;24.71;61.55;94818.56;5092087;28;20093;-67
2022/08/25 00:31:03;;;;;;;13.70;6.55;;;;;;;24.72;61.35;94820.03;5094748;28;20023;-66
2022/08/25 00:33:30;;;;;;;19.90;6.68;;;;;;;24.68;61.32;94814.16;5061838;28;20054;-64
2022/08/25 00:35:55;;;;;;;14.23;6.18;;;;;;;24.63;61.68;94817.72;5095108;28;20040;-67
2022/08/25 00:38:21;;;;;;;16.63;6.63;;;;;;;24.58;61.71;94804.91;5092108;28;20039;-67
2022/08/25 00:41:04;;;;;;;15.43;6.22;;;;;;;24.59;61.82;94822.75;5095782;28;20482;-63
2022/08/25 00:43:51;;;;;;;15.38;5.70;;;;;;;24.62;61.42;94810.78;5094494;28;20040;-66
2022/08/25 00:46:20;;;;;;;16.65;6.13;;;;;;;24.67;61.35;94820.88;5089655;28;20097;-67
2022/08/25 00:48:49;;;;;;;13.43;5.63;;;;;;;24.58;61.68;94826.75;5097172;28;20517;-66
2022/08/25 00:51:18;;;;;;;11.40;6.55;;;;;;;24.61;61.64;94826.44;5092432;28;20582;-67
2022/08/25 00:53:43;;;;;;;11.48;6.00;;;;;;;24.68;61.23;94819.59;5077780;28;20046;-67
2022/08/25 00:56:10;;;;;;;14.57;6.00;;;;;;;24.66;61.46;94822.84;5090426;28;20036;-67
2022/08/25 00:58:36;;;;;;;14.77;6.93;;;;;;;24.63;61.85;94823.19;5056134;28;20427;-66
2022/08/25 01:01:01;;;;;;;12.00;5.63;;;;;;;24.56;61.86;94823.81;5066382;28;20028;-65
2022/08/25 01:03:27;;;;;;;13.10;6.30;;;;;;;24.52;61.67;94817.91;5095194;28;20019;-67
2022/08/25 01:05:53;;;;;;;15.13;6.00;;;;;;;24.59;61.88;94811.84;5091459;28;20059;-65
2022/08/25 01:08:21;;;;;;;12.98;5.85;;;;;;;24.56;62.23;94807.44;5064049;28;20047;-67
2022/08/25 01:10:47;;;;;;;15.77;6.38;;;;;;;24.51;62.50;94789.13;5067015;28;20028;-66
2022/08/25 01:13:20;;;;;;;14.15;5.35;;;;;;;24.56;62.40;94791.78;5057470;28;20036;-63
2022/08/25 01:15:45;;;;;;;11.88;5.60;;;;;;;24.64;61.73;94791.88;5057170;28;20035;-66
2022/08/25 01:18:11;;;;;;;17.00;5.53;;;;;;;24.61;61.86;94788.19;5060000;28;20530;-66
2022/08/25 01:20:36;;;;;;;13.98;5.95;;;;;;;24.62;61.88;94788.94;5090914;28;20064;-65
2022/08/25 01:23:02;;;;;;;13.48;5.35;;;;;;;24.58;62.07;94793.97;5093694;28;20092;-66
2022/08/25 01:25:33;;;;;;;14.93;6.10;;;;;;;24.58;61.86;94791.97;5095559;28;20036;-66
2022/08/25 01:27:59;;;;;;;14.00;5.70;;;;;;;24.47;62.37;94788.72;5095969;28;20069;-66
2022/08/25 01:30:24;;;;;;;14.63;6.05;;;;;;;24.55;61.88;94789.56;5104229;28;20023;-65
2022/08/25 01:32:50;;;;;;;12.13;5.78;;;;;;;24.50;62.46;94798.59;5096873;28;20472;-67
2022/08/25 01:35:15;;;;;;;9.98;5.25;;;;;;;24.52;62.09;94796.06;5097957;28;20039;-63
2022/08/25 01:37:41;;;;;;;14.60;6.18;;;;;;;24.49;62.32;94786.91;5101290;28;20043;-67
2022/08/25 01:40:07;;;;;;;12.02;5.55;;;;;;;24.48;62.21;94795.63;5110673;28;20023;-65
2022/08/25 01:42:40;;;;;;;11.25;6.03;;;;;;;24.52;61.90;94790.59;5104894;28;20046;-64
2022/08/25 01:45:07;;;;;;;13.60;5.65;;;;;;;24.54;61.87;94799.00;5110971;27;20070;-63
2022/08/25 01:47:32;;;;;;;13.57;6.15;;;;;;;24.53;62.54;94792.09;5090581;28;20024;-65
2022/08/25 01:49:58;;;;;;;12.93;5.63;;;;;;;24.50;62.34;94798.59;5094874;28;20051;-65
2022/08/25 01:52:31;;;;;;;10.18;5.78;;;;;;;24.52;62.20;94801.53;5095642;28;20135;-65
2022/08/25 01:54:57;;;;;;;10.63;5.65;;;;;;;24.61;62.03;94804.59;5092840;28;20559;-66
2022/08/25 01:57:23;;;;;;;13.52;6.63;;;;;;;24.61;62.09;94809.31;5094749;28;20035;-64
2022/08/25 01:59:48;;;;;;;15.43;5.90;;;;;;;24.57;62.08;94792.50;5096439;28;20522;-67
2022/08/25 02:02:13;;;;;;;19.13;7.75;;;;;;;24.58;62.14;94796.72;5073165;28;20044;-67
2022/08/25 02:04:39;;;;;;;14.75;5.60;;;;;;;24.60;62.34;94791.44;5093907;28;20042;-68
2022/08/25 02:07:06;;;;;;;14.30;5.88;;;;;;;24.56;62.26;94791.03;5087911;28;20023;-67
2022/08/25 02:09:32;;;;;;;12.77;6.10;;;;;;;24.58;62.24;94793.97;5090057;28;20105;-67
2022/08/25 02:11:58;;;;;;;15.20;5.82;;;;;;;24.55;62.24;94800.47;5070338;28;20109;-66
2022/08/25 02:14:23;;;;;;;11.43;6.32;;;;;;;24.51;62.51;94794.59;5093738;28;20040;-67
2022/08/25 02:16:49;;;;;;;12.00;5.68;;;;;;;24.58;62.31;94788.53;5088085;28;20044;-67
2022/08/25 02:19:15;;;;;;;12.65;6.13;;;;;;;24.52;62.31;94780.41;5097719;28;20051;-66
2022/08/25 02:21:41;;;;;;;14.00;5.90;;;;;;;24.57;62.29;94787.03;5081765;28;20008;-66
2022/08/25 02:24:06;;;;;;;12.10;5.68;;;;;;;24.50;62.36;94790.41;5079691;28;20594;-66
2022/08/25 02:26:32;;;;;;;12.60;5.88;;;;;;;24.51;62.37;94786.38;5072434;28;20044;-65
2022/08/25 02:28:57;;;;;;;13.55;6.00;;;;;;;24.55;61.94;94789.56;5079951;28;20039;-66
2022/08/25 02:31:23;;;;;;;12.48;5.70;;;;;;;24.46;62.15;94787.97;5090544;28;20075;-66
2022/08/25 02:33:49;;;;;;;11.95;5.93;;;;;;;24.51;61.99;94768.03;5082565;28;20024;-66
2022/08/25 02:36:15;;;;;;;12.68;6.07;;;;;;;24.50;62.18;94771.28;5093819;28;20032;-66
2022/08/25 02:38:40;;;;;;;16.10;6.20;;;;;;;24.55;61.72;94775.91;5093064;28;20023;-65
2022/08/25 02:41:14;;;;;;;18.05;6.50;;;;;;;24.58;61.86;94788.53;5076602;28;20032;-64
2022/08/25 02:43:40;;;;;;;14.30;6.63;;;;;;;24.55;61.78;94784.09;5100517;28;20039;-67
2022/08/25 02:46:06;;;;;;;11.00;5.85;;;;;;;24.50;62.04;94787.66;5073432;28;20028;-66
2022/08/25 02:48:31;;;;;;;13.93;6.15;;;;;;;24.44;62.08;94785.03;5098337;28;20035;-66
2022/08/25 02:50:59;;;;;;;16.35;6.03;;;;;;;24.44;61.92;94779.56;5095901;28;20046;-66
2022/08/25 02:53:25;;;;;;;16.08;6.35;;;;;;;24.52;61.69;94779.69;5103878;28;20517;-65
2022/08/25 02:55:50;;;;;;;14.75;5.88;;;;;;;24.44;61.99;94784.28;5096768;28;20028;-66
2022/08/25 02:58:16;;;;;;;16.00;6.03;;;;;;;24.47;61.72;94788.72;5100511;28;20035;-66
2022/08/25 03:00:41;;;;;;;15.68;5.95;;;;;;;24.56;61.78;94793.78;5100261;28;20007;-66
2022/08/25 03:03:06;;;;;;;14.73;5.65;;;;;;;24.50;61.58;94795.84;5102119;28;20228;-67
2022/08/25 03:05:32;;;;;;;12.80;5.75;;;;;;;24.51;61.24;94797.31;5098020;28;20033;-66
2022/08/25 03:07:58;;;;;;;14.43;5.60;;;;;;;24.55;61.23;94792.28;5102714;28;20043;-64
2022/08/25 03:10:23;;;;;;;16.95;5.93;;;;;;;24.50;61.68;94798.59;5100695;28;20083;-67
2022/08/25 03:12:49;;;;;;;13.40;5.97;;;;;;;24.53;61.37;94797.53;5102055;28;20394;-67
2022/08/25 03:15:17;;;;;;;14.10;5.50;;;;;;;24.51;61.75;94795.34;5097644;28;20024;-64
2022/08/25 03:38:05;;;;;;;13.63;6.10;;;;;;;24.24;62.20;94782.09;5067647;27;20455;-67
2022/08/25 03:40:32;;;;;;;17.52;6.35;;;;;;;24.43;61.93;94821.75;5041140;28;20048;-66
2022/08/25 03:42:57;;;;;;;13.43;6.35;;;;;;;24.21;62.07;94777.66;5037536;28;20033;-66
2022/08/25 03:45:23;;;;;;;11.30;5.60;;;;;;;24.34;61.97;94796.84;5059429;28;20516;-66
2022/08/25 03:47:49;;;;;;;13.10;6.05;;;;;;;24.49;61.96;94802.56;5050735;28;20060;-70
2022/08/25 03:50:15;;;;;;;14.00;5.80;;;;;;;24.43;61.80;94786.28;5055758;28;20032;-71
2022/08/25 03:52:41;;;;;;;14.30;6.10;;;;;;;24.35;61.99;94788.16;5051564;28;20037;-69
2022/08/25 03:55:08;;;;;;;10.32;5.65;;;;;;;24.32;62.13;94771.31;5036202;28;20025;-62
2022/08/25 03:57:34;;;;;;;14.82;5.80;;;;;;;24.31;61.91;94773.31;5058236;28;20579;-64
2022/08/25 03:59:59;;;;;;;15.32;6.80;;;;;;;23.83;62.29;94698.47;5057770;28;20115;-64
2022/08/25 04:02:25;;;;;;;13.95;5.75;;;;;;;24.03;62.37;94723.88;5057576;28;20525;-65
2022/08/25 04:04:51;;;;;;;12.73;6.10;;;;;;;24.26;62.06;94765.19;5044677;28;20029;-68
2022/08/25 04:07:16;;;;;;;12.07;5.75;;;;;;;24.16;62.36;94743.03;5035782;28;20033;-61
2022/08/25 04:09:42;;;;;;;14.93;6.45;;;;;;;24.35;62.45;94788.16;5033321;28;20029;-61
2022/08/25 04:12:07;;;;;;;14.35;6.07;;;;;;;23.92;62.36;94726.81;5029539;28;20037;-63
2022/08/25 04:14:33;;;;;;;9.48;5.75;;;;;;;23.51;62.18;94651.31;5027079;28;20053;-60
2022/08/25 04:16:58;;;;;;;12.18;5.90;;;;;;;24.46;62.11;94787.22;5025935;28;20049;-60
2022/08/25 04:19:24;;;;;;;14.07;6.10;;;;;;;24.36;61.96;94783.41;5023802;28;20065;-65
2022/08/25 04:21:50;;;;;;;11.60;6.00;;;;;;;24.14;61.87;94740.09;5030730;28;20048;-65
2022/08/25 04:24:16;;;;;;;13.75;6.72;;;;;;;23.86;61.87;94704.34;5035271;28;20021;-65
2022/08/25 04:26:46;;;;;;;13.07;6.05;;;;;;;23.92;62.03;94709.72;5027265;28;20513;-73
2022/08/25 04:29:13;;;;;;;11.05;6.20;;;;;;;24.42;62.15;94776.63;5037497;28;20112;-69
2022/08/25 04:31:39;;;;;;;10.55;5.90;;;;;;;23.90;61.84;94682.97;5042012;28;20044;-61
2022/08/25 04:34:05;;;;;;;15.02;6.60;;;;;;;24.11;62.25;94729.47;5029451;28;20044;-64
2022/08/25 04:36:31;;;;;;;14.25;6.82;;;;;;;24.10;61.99;94723.28;5027176;28;20050;-65
2022/08/25 04:38:57;;;;;;;11.93;5.95;;;;;;;23.99;62.33;94718.03;5012542;28;20061;-63
2022/08/25 04:41:23;;;;;;;13.25;6.18;;;;;;;24.28;61.85;94755.25;5015791;28;20845;-67
2022/08/25 04:43:48;;;;;;;12.23;6.35;;;;;;;24.32;62.11;94772.06;5021718;28;20152;-60
2022/08/25 04:46:19;;;;;;;15.60;6.13;;;;;;;24.41;61.82;94780.59;5030580;28;20489;-66
2022/08/25 04:48:44;;;;;;;14.55;6.63;;;;;;;24.53;62.10;94790.09;5018534;28;20034;-72
2022/08/25 04:51:12;;;;;;;16.33;6.68;;;;;;;24.49;61.81;94791.66;5011519;28;20069;-69
2022/08/25 04:53:38;;;;;;;23.73;13.63;;;;;;;24.48;61.72;94781.97;5013028;28;20515;-71
2022/08/25 04:56:09;;;;;;;19.52;8.68;;;;;;;24.58;61.81;94799.44;5013419;28;20037;-75
2022/08/25 04:58:35;;;;;;;17.25;8.80;;;;;;;24.59;61.63;94795.47;5009107;28;20053;-69
2022/08/25 05:01:05;;;;;;;14.13;8.27;;;;;;;24.52;61.43;94785.16;5009389;28;20104;-63
2022/08/25 05:03:30;;;;;;;;;;;;;;;24.60;61.51;94803.13;5009397;28;20052;-64
2022/08/25 05:05:56;;;;;;;15.30;8.07;;;;;;;24.58;61.73;94793.97;5016181;28;19922;-74
2022/08/25 05:08:21;;;;;;;16.88;8.10;;;;;;;24.54;61.72;94793.53;5026377;28;20049;-67
2022/08/25 05:10:47;;;;;;;16.10;8.20;;;;;;;24.55;61.70;94789.56;5021555;28;20038;-71
2022/08/25 05:13:12;;;;;;;20.15;8.70;;;;;;;24.63;61.48;94795.88;5024546;28;20021;-63
2022/08/25 05:15:50;;;;;;;16.33;7.82;;;;;;;24.43;61.97;94771.91;5034702;28;20238;-73
2022/08/25 05:18:16;;;;;;;17.73;7.57;;;;;;;24.56;61.75;94763.75;5021160;28;20041;-70
2022/08/25 05:20:42;;;;;;;20.85;8.07;;;;;;;24.71;61.75;94786.53;5020287;28;20036;-75
2022/08/25 05:23:07;;;;;;;16.17;8.02;;;;;;;24.40;61.65;94749.09;5014148;28;20057;-69
2022/08/25 05:25:33;;;;;;;17.88;7.70;;;;;;;23.89;61.54;94654.19;5018123;28;20045;-75
2022/08/25 05:27:58;;;;;;;17.23;7.43;;;;;;;24.85;61.08;94791.47;5035293;28;20080;-59
2022/08/25 05:30:24;;;;;;;15.77;7.93;;;;;;;24.83;61.43;94777.63;5025410;28;20199;-72
2022/08/25 05:32:49;;;;;;;16.42;7.82;;;;;;;24.51;61.92;94727.09;5024617;28;20203;-65
2022/08/25 05:35:15;;;;;;;16.67;7.15;;;;;;;24.84;61.94;94779.09;5025521;28;20575;-71
2022/08/25 05:37:41;;;;;;;12.25;7.20;;;;;;;24.54;62.87;94711.63;5041775;28;20136;-76
2022/08/25 05:40:07;;;;;;;17.50;7.13;;;;;;;24.61;61.30;94705.56;5040362;28;20052;-72
2022/08/25 05:42:33;;;;;;;19.15;8.18;;;;;;;24.89;60.54;94753.69;5041672;28;20033;-71
2022/08/25 05:44:59;;;;;;;14.18;7.25;;;;;;;25.25;59.88;94784.06;5040242;28;20061;-67
2022/08/25 05:47:24;;;;;;;16.13;7.65;;;;;;;25.14;60.60;94785.03;5042455;28;20083;-71
2022/08/25 05:49:50;;;;;;;16.08;7.18;;;;;;;25.05;59.75;94749.94;5030878;28;20521;-68
2022/08/25 05:52:15;;;;;;;16.70;7.07;;;;;;;24.92;59.53;94711.66;5031708;28;20057;-67
2022/08/25 05:54:41;;;;;;;15.23;7.22;;;;;;;24.56;59.20;94654.53;5047985;28;20041;-74
2022/08/25 05:57:08;;;;;;;16.55;7.18;;;;;;;25.51;59.18;94795.72;5026396;28;20548;-66
2022/08/25 05:59:33;;;;;;;13.70;7.25;;;;;;;25.58;59.24;94789.59;5024784;28;20044;-73
2022/08/25 06:04:45;;;;;;;15.38;6.90;;;;;;;25.71;58.46;94775.91;5011307;28;20260;-71
2022/08/25 06:07:11;;;;;;;12.60;6.38;;;;;;;25.79;58.12;94786.41;5019985;28;20030;-70
2022/08/25 06:09:38;;;;;;;14.93;6.90;;;;;;;25.73;57.79;94751.50;5014334;28;20033;-69
2022/08/25 06:12:04;;;;;;;18.58;7.28;;;;;;;25.70;57.47;94752.56;5008691;28;20046;-70
2022/08/25 06:14:29;;;;;;;16.08;6.68;;;;;;;26.05;57.33;94797.28;5038032;28;20056;-60
2022/08/25 06:16:55;;;;;;;14.25;6.40;;;;;;;26.11;56.71;94786.94;5029982;28;20034;-72
2022/08/25 06:19:22;;;;;;;14.30;6.40;;;;;;;26.01;57.15;94777.72;5027464;28;20034;-73
2022/08/25 06:21:48;;;;;;;14.65;6.22;;;;;;;25.99;56.88;94752.91;5030013;28;20067;-70
2022/08/25 06:24:13;;;;;;;12.20;6.25;;;;;;;25.89;56.67;94732.72;5029294;28;20034;-75
2022/08/25 06:26:39;;;;;;;14.63;6.53;;;;;;;25.78;56.62;94695.94;5031396;28;20521;-63
2022/08/25 06:29:04;;;;;;;12.88;6.80;;;;;;;26.43;55.91;94771.03;5025814;28;20044;-67
2022/08/25 06:31:30;;;;;;;14.32;6.55;;;;;;;26.52;56.02;94787.00;5028320;28;20045;-73
2022/08/25 06:33:56;;;;;;;12.95;6.55;;;;;;;26.16;55.71;94739.53;5029379;28;20556;-63
2022/08/25 06:36:22;;;;;;;14.70;7.03;;;;;;;25.73;55.80;94670.19;5031266;28;20128;-72
2022/08/25 06:38:47;;;;;;;16.17;6.65;;;;;;;26.04;54.96;94674.66;5026049;28;20098;-69
2022/08/25 06:41:13;;;;;;;18.38;7.85;;;;;;;26.41;55.66;94748.91;5035845;28;20068;-71
2022/08/25 06:43:40;;;;;;;16.25;6.97;;;;;;;26.75;54.99;94774.19;5040933;28;20567;-63
2022/08/25 06:46:12;;;;;;;17.55;7.32;;;;;;;26.85;55.32;94776.66;5032440;28;20508;-59
2022/08/25 06:48:38;;;;;;;14.68;6.85;;;;;;;26.46;54.45;94699.47;5040258;28;20046;-62
2022/08/25 06:51:08;;;;;;;14.52;6.75;;;;;;;26.96;54.84;94786.63;5033895;28;20686;-59
2022/08/25 06:53:34;;;;;;;11.68;7.10;;;;;;;27.05;54.27;94777.91;5036055;28;20122;-62
2022/08/25 06:56:00;;;;;;;14.40;7.13;;;;;;;27.07;54.38;94767.88;5036947;28;20040;-61
2022/08/25 06:58:25;;;;;;;15.32;7.10;;;;;;;27.02;53.82;94768.75;5034376;28;20525;-65
2022/08/25 07:00:51;;;;;;;15.50;6.70;;;;;;;27.15;54.06;94771.38;5030972;28;20033;-59
2022/08/25 07:03:17;;;;;;;14.30;6.75;;;;;;;26.87;53.97;94741.19;5033874;28;20128;-69
2022/08/25 07:05:52;;;;;;;15.10;7.13;;;;;;;27.20;53.73;94781.47;5028759;28;20045;-64
2022/08/25 07:08:18;;;;;;;12.95;7.25;;;;;;;26.93;54.08;94744.56;5039153;28;20094;-67
2022/08/25 07:10:43;;;;;;;22.23;7.88;;;;;;;27.26;54.12;94788.28;5030963;28;20037;-63
2022/08/25 07:13:09;;;;;;;16.38;7.28;;;;;;;27.31;54.08;94783.91;5035772;28;20028;-60
2022/08/25 07:15:38;;;;;;;11.98;6.43;;;;;;;26.83;53.05;94707.94;5033304;28;20028;-63
2022/08/25 07:18:04;;;;;;;17.13;7.57;;;;;;;27.34;53.63;94778.06;5028232;28;20595;-67
2022/08/25 07:20:30;;;;;;;9.75;6.88;;;;;;;27.06;52.98;94725.28;5028529;28;20037;-58
2022/08/25 07:22:56;;;;;;;16.60;7.18;;;;;;;27.01;52.48;94706.97;5027925;28;20033;-60
2022/08/25 07:25:22;;;;;;;19.40;8.02;;;;;;;27.37;53.15;94771.50;5025296;28;20041;-62
2022/08/25 07:27:47;;;;;;;15.38;7.05;;;;;;;27.18;52.77;94731.91;5043228;28;20147;-59
2022/08/25 07:30:13;;;;;;;13.02;6.55;;;;;;;27.55;52.68;94786.22;5028867;28;20036;-64
2022/08/25 07:32:38;;;;;;;18.15;6.97;;;;;;;27.50;52.65;94767.94;5026848;28;20072;-61
2022/08/25 07:35:17;;;;;;;15.70;7.40;;;;;;;27.44;52.28;94742.63;5028826;28;20048;-62
2022/08/25 07:37:44;;;;;;;17.42;7.03;;;;;;;27.06;51.95;94684.16;5031571;28;20037;-66
2022/08/25 07:40:16;;;;;;;17.67;7.35;;;;;;;27.10;52.49;94681.81;5032093;28;20551;-62
2022/08/25 07:42:42;;;;;;;17.50;6.20;;;;;;;27.19;51.84;94694.25;5030715;28;20251;-59
2022/08/25 07:45:09;;;;;;;16.00;6.93;;;;;;;27.80;52.23;94764.03;5028043;28;20682;-60
2022/08/25 07:47:35;;;;;;;11.93;6.78;;;;;;;27.46;52.08;94720.91;5026963;28;20052;-63
2022/08/25 07:50:01;;;;;;;14.75;6.97;;;;;;;27.69;52.01;94765.63;5026369;28;20025;-59
2022/08/25 07:52:27;;;;;;;16.52;6.85;;;;;;;27.34;51.68;94700.56;5024328;28;20068;-60
2022/08/25 07:54:53;;;;;;;15.02;6.30;;;;;;;27.60;52.09;94733.22;5029973;28;20034;-59
2022/08/25 07:57:21;;;;;;;16.55;6.05;;;;;;;28.02;51.52;94779.09;5011928;28;20080;-63
2022/08/25 07:59:46;;;;;;;17.38;6.65;;;;;;;28.07;51.51;94773.44;5005424;28;20095;-61
2022/08/25 08:02:12;;;;;;;12.27;6.13;;;;;;;27.96;51.36;94776.50;5006781;28;20041;-61
2022/08/25 08:04:37;;;;;;;11.23;6.47;;;;;;;28.04;51.38;94774.53;5011809;28;20513;-60
2022/08/25 08:07:04;;;;;;;11.23;6.03;;;;;;;28.02;51.52;94777.06;5036273;28;20032;-66
2022/08/25 08:09:32;;;;;;;16.40;6.70;;;;;;;27.44;51.18;94671.31;5037884;28;20055;-63
2022/08/25 08:11:57;;;;;;;13.88;6.35;;;;;;;27.98;51.57;94765.72;5025587;28;20128;-63
2022/08/25 08:14:23;;;;;;;11.80;6.15;;;;;;;28.13;51.86;94774.03;5028522;28;20365;-62
2022/08/25 08:16:48;;;;;;;12.45;6.60;;;;;;;28.04;51.57;94760.06;5025665;28;20037;-69
2022/08/25 08:19:15;;;;;;;16.05;6.95;;;;;;;27.69;51.65;94713.50;5048593;28;20082;-63
2022/08/25 08:21:40;;;;;;;13.88;6.53;;;;;;;27.47;51.50;94670.22;5050249;28;20032;-62
2022/08/25 08:24:06;;;;;;;17.08;6.25;;;;;;;27.83;52.15;94723.75;5052777;28;20462;-62
2022/08/25 08:26:32;;;;;;;14.93;6.70;;;;;;;27.73;51.77;94719.34;5048492;28;20126;-61
2022/08/25 08:28:57;;;;;;;11.18;6.38;;;;;;;27.89;52.54;94760.75;5048322;28;20514;-62
2022/08/25 08:31:25;;;;;;;14.65;6.43;;;;;;;27.39;52.05;94680.47;5040163;28;20064;-67
2022/08/25 08:33:51;;;;;;;11.90;6.60;;;;;;;27.14;52.33;94657.50;5042294;28;20043;-59
2022/08/25 08:36:17;;;;;;;14.25;6.10;;;;;;;27.79;52.29;94746.09;5037724;28;20045;-63
2022/08/25 08:38:43;;;;;;;12.30;6.78;;;;;;;27.71;53.13;94746.59;5044848;28;20407;-62
2022/08/25 08:44:44;;;;;;;13.77;6.20;;;;;;;27.63;53.03;94749.31;5039982;28;20098;-59
2022/08/25 08:47:38;;;;;;;18.55;6.75;;;;;;;27.49;52.76;94728.06;5045532;28;20051;-63
2022/08/25 08:50:28;;;;;;;16.58;6.22;;;;;;;27.43;53.29;94738.44;5044869;28;20045;-65
2022/08/25 08:52:53;;;;;;;;;;;;;;;27.44;53.22;94740.66;5044063;28;20071;-58
2022/08/25 08:55:38;;;;;;;16.58;6.32;;;;;;;27.40;53.28;94747.75;5049476;28;19924;-61
2022/08/25 08:58:08;;;;;;;13.88;6.00;;;;;;;27.39;53.50;94746.28;5045737;28;20082;-58
2022/08/25 09:00:44;;;;;;;;;;;;;;;27.29;53.79;94748.06;5043869;28;20477;-60
2022/08/25 09:03:26;;;;;;;17.58;5.90;;;;;;;26.89;52.22;94683.91;5043177;28;19920;-66
2022/08/25 09:05:54;;;;;;;14.55;5.20;;;;;;;27.19;53.15;94716.19;5013473;28;20034;-59
2022/08/25 09:08:19;;;;;;;18.10;6.45;;;;;;;26.93;52.77;94662.34;5009243;28;20046;-61
2022/08/25 09:10:49;;;;;;;42.05;15.25;;;;;;;27.65;52.19;94746.03;5022684;28;20485;-65
2022/08/25 09:13:30;;;;;;;29.15;8.85;;;;;;;26.64;52.44;94629.31;5021075;28;20033;-61
2022/08/25 09:19:13;;;;;;;24.33;6.82;;;;;;;26.46;51.84;94663.16;5011406;28;20125;-69
2022/08/25 09:21:51;;;;;;;20.48;6.15;;;;;;;27.32;51.26;94736.75;5023257;28;20137;-69
2022/08/25 09:24:35;;;;;;;20.13;5.47;;;;;;;27.72;50.41;94734.38;5012134;28;20026;-61
2022/08/25 09:27:25;;;;;;;21.75;5.50;;;;;;;27.48;49.36;94655.25;5018466;28;20103;-67
2022/08/25 09:30:06;;;;;;;16.90;5.22;;;;;;;27.36;49.51;94641.13;5036944;28;20172;-63
2022/08/25 09:32:41;;;;;;;25.08;5.72;;;;;;;28.06;49.98;94736.28;5019468;28;20049;-73
2022/08/25 09:35:08;;;;;;;19.02;5.70;;;;;;;28.11;48.80;94729.88;5029463;28;20568;-74
2022/08/25 09:37:35;;;;;;;17.05;5.63;;;;;;;27.94;49.35;94726.91;5019215;28;20066;-74
2022/08/25 09:40:00;;;;;;;18.95;5.68;;;;;;;27.78;50.30;94705.47;5027148;28;20417;-63
2022/08/25 09:42:45;;;;;;;17.90;5.82;;;;;;;27.26;50.41;94661.38;5025247;28;20014;-64
2022/08/25 09:45:12;;;;;;;16.85;5.57;;;;;;;27.86;50.12;94722.69;5039513;28;20071;-71
2022/08/25 09:47:41;;;;;;;13.02;4.95;;;;;;;28.09;49.24;94724.22;5024580;28;20083;-67
2022/08/25 09:50:07;;;;;;;20.02;5.57;;;;;;;27.96;48.44;94716.09;5042961;28;20041;-65
2022/08/25 09:52:39;;;;;;;21.20;4.25;;;;;;;28.04;47.85;94727.84;5020537;28;20061;-72
2022/08/25 09:55:04;;;;;;;23.58;4.75;;;;;;;28.18;47.29;94731.94;5037184;28;20039;-72
2022/08/25 09:57:34;;;;;;;17.52;4.45;;;;;;;27.88;45.85;94679.69;5008901;28;20038;-62
2022/08/25 10:00:11;;;;;;;16.30;4.10;;;;;;;28.25;45.40;94725.69;5016410;28;20046;-69
2022/08/25 10:02:37;;;;;;;19.77;3.80;;;;;;;27.92;45.52;94682.81;5020845;28;20037;-71
2022/08/25 10:05:17;;;;;;;20.08;4.60;;;;;;;28.51;44.47;94719.84;5031332;28;20517;-72
2022/08/25 10:07:54;;;;;;;16.98;3.65;;;;;;;27.94;44.33;94644.56;5038552;28;20049;-70
2022/08/25 10:10:38;;;;;;;20.45;4.10;;;;;;;27.85;44.03;94634.13;5041712;28;20424;-61
2022/08/25 10:13:16;;;;;;;17.08;3.92;;;;;;;28.03;43.52;94649.50;5036238;28;20502;-71
2022/08/25 10:15:42;;;;;;;15.48;3.58;;;;;;;28.49;44.03;94722.41;5008876;28;20141;-68
2022/08/25 10:18:30;;;;;;;13.65;3.30;;;;;;;28.41;44.87;94732.66;5030034;28;20287;-65
2022/08/25 10:21:06;;;;;;;17.55;3.80;;;;;;;28.04;44.60;94634.50;5025922;28;20041;-67
2022/08/25 10:23:33;;;;;;;19.85;4.03;;;;;;;27.93;44.70;94623.88;5031369;28;20529;-63
2022/08/25 10:26:31;;;;;;;17.63;3.30;;;;;;;28.44;44.07;94698.59;5029281;28;20041;-69
2022/08/25 10:29:03;;;;;;;16.57;3.93;;;;;;;28.57;44.24;94720.41;5020759;28;20073;-68
2022/08/25 10:31:35;;;;;;;17.30;3.25;;;;;;;28.53;44.54;94717.28;5034940;28;20052;-70
2022/08/25 10:34:27;;;;;;;17.63;3.90;;;;;;;28.74;43.83;94719.31;5034845;28;20025;-66
2022/08/25 10:37:03;;;;;;;13.93;3.50;;;;;;;28.75;43.91;94718.03;5035381;28;20057;-69
2022/08/25 10:39:31;;;;;;;20.25;3.30;;;;;;;28.80;44.70;94711.63;5037114;28;20052;-68
2022/08/25 10:42:01;;;;;;;14.82;3.20;;;;;;;28.79;43.84;94707.38;5034319;28;20065;-65
2022/08/25 10:47:32;;;;;;;16.48;3.47;;;;;;;28.79;44.17;94701.91;5025964;28;20056;-60
2022/08/25 10:50:17;;;;;;;10.45;3.38;;;;;;;28.94;42.86;94690.88;5029120;28;21067;-63
2022/08/25 10:53:01;;;;;;;16.00;3.40;;;;;;;28.53;43.38;94640.34;5022344;28;20227;-59
2022/08/25 10:55:42;;;;;;;14.23;3.00;;;;;;;28.55;43.93;94670.75;5024137;28;20098;-59
2022/08/25 10:58:22;;;;;;;14.20;3.40;;;;;;;28.63;43.36;94698.97;5048704;23;20057;-68
2022/08/25 11:00:58;;;;;;;13.80;3.30;;;;;;;28.53;43.49;94689.81;5000216;28;20108;-71
2022/08/25 11:03:36;;;;;;;18.35;3.50;;;;;;;28.51;43.89;94693.09;4993920;28;20038;-68
2022/08/25 11:06:08;;;;;;;15.67;3.77;;;;;;;28.33;44.29;94655.75;4999574;28;20034;-68
2022/08/25 11:08:48;;;;;;;14.00;3.30;;;;;;;28.53;43.83;94689.81;4998444;28;20409;-70
2022/08/25 11:11:29;;;;;;;14.32;3.28;;;;;;;27.91;44.56;94599.00;5001643;28;20042;-70
2022/08/25 11:14:00;;;;;;;16.52;3.58;;;;;;;28.38;44.63;94673.31;4994847;28;20108;-67
2022/08/25 11:17:00;;;;;;;18.30;3.72;;;;;;;28.43;44.65;94677.91;4988830;28;20048;-66
2022/08/25 11:19:44;;;;;;;13.50;3.38;;;;;;;28.37;44.54;94688.34;4999950;28;20052;-72
2022/08/25 11:22:29;;;;;;;17.58;3.20;;;;;;;28.31;45.19;94674.81;5000113;28;20073;-69
2022/08/25 11:25:22;;;;;;;13.25;3.33;;;;;;;28.26;45.16;94672.22;5006172;28;20034;-71
2022/08/25 11:28:14;;;;;;;13.43;3.30;;;;;;;28.24;45.19;94664.53;4998137;28;20541;-74
2022/08/25 11:30:40;;;;;;;9.65;3.08;;;;;;;28.23;45.32;94667.84;4984232;28;20057;-62
2022/08/25 11:33:05;;;;;;;11.23;2.97;;;;;;;27.82;45.39;94616.00;5013753;28;20062;-71
2022/08/25 11:35:39;;;;;;;13.63;3.35;;;;;;;28.14;45.36;94649.16;4996325;28;20049;-75
2022/08/25 11:38:31;;;;;;;15.73;3.60;;;;;;;28.14;45.67;94657.41;4993673;28;20060;-68
2022/08/25 11:41:24;;;;;;;14.48;3.50;;;;;;;28.11;45.27;94644.78;4995579;28;20049;-61
2022/08/25 11:44:12;;;;;;;14.93;3.75;;;;;;;27.99;45.35;94643.63;4998526;28;20727;-66
2022/08/25 11:47:26;;;;;;;12.73;3.90;;;;;;;28.06;45.46;94648.41;4986462;28;20042;-67
2022/08/25 11:49:52;;;;;;;14.85;3.30;;;;;;;27.97;45.83;94640.00;4995565;28;20050;-67
2022/08/25 11:52:33;;;;;;;19.33;3.55;;;;;;;27.89;45.47;94642.72;5000325;28;20085;-69
2022/08/25 11:55:06;;;;;;;11.60;3.60;;;;;;;27.85;45.00;94639.59;4999399;28;20014;-66
2022/08/25 11:57:31;;;;;;;17.08;3.38;;;;;;;27.58;44.57;94593.09;4996886;28;20051;-74
2022/08/25 12:00:13;;;;;;;13.85;3.47;;;;;;;27.82;45.35;94635.22;4983373;28;20049;-61
2022/08/25 12:02:50;;;;;;;16.35;3.40;;;;;;;27.64;44.61;94596.41;4995797;28;20042;-70
2022/08/25 12:05:21;;;;;;;13.52;3.45;;;;;;;27.83;45.48;94633.94;4993878;28;20121;-69
2022/08/25 12:07:47;;;;;;;13.82;3.20;;;;;;;27.83;45.49;94636.69;4994938;28;20111;-68
2022/08/25 12:10:22;;;;;;;12.98;3.60;;;;;;;27.86;45.34;94640.34;4999579;28;20109;-68